Time;durP1;ratioP1;P1;durP2;ratioP2;P2;SDS_P1;SDS_P2;PMS_P1;PMS_P2;Temp;Humidity;BMP_temperature;BMP_pressure;BME280_temperature;BME280_humidity;BME280_pressure;Samples;Min_cycle;Max_cycle;Signal;HPM_P1;HPM_P2
2021/04/02 00:01:48;;;;;;;5.00;3.10;;;;;;;5.38;87.30;101193.47;5000480;28;20192;-71
2021/04/02 00:04:14;;;;;;;6.57;3.27;;;;;;;5.27;87.39;101187.34;5001237;28;20228;-71
2021/04/02 00:06:40;;;;;;;5.57;3.57;;;;;;;5.23;87.36;101186.47;5007521;28;20203;-70
2021/04/02 00:09:06;;;;;;;6.30;3.57;;;;;;;5.20;87.81;101186.47;5000119;28;20259;-71
2021/04/02 00:11:32;;;;;;;6.50;3.77;;;;;;;5.13;88.13;101177.78;5000981;28;20296;-71
2021/04/02 00:13:58;;;;;;;6.83;4.10;;;;;;;5.08;88.16;101176.94;4999431;28;20402;-71
2021/04/02 00:16:25;;;;;;;8.37;4.73;;;;;;;5.05;88.63;101186.41;4997133;28;20424;-72
2021/04/02 00:18:51;;;;;;;8.00;4.93;;;;;;;4.99;88.92;101176.88;5003628;28;20208;-71
2021/04/02 00:21:18;;;;;;;7.13;4.50;;;;;;;5.00;88.96;101181.19;4999127;28;20267;-71
2021/04/02 00:23:44;;;;;;;8.40;4.67;;;;;;;4.94;89.41;101175.97;5001892;28;20225;-71
2021/04/02 00:26:12;;;;;;;11.20;4.97;;;;;;;4.92;89.57;101177.69;5001972;28;20255;-72
2021/04/02 00:28:39;;;;;;;8.50;4.73;;;;;;;4.93;89.83;101182.88;5008289;28;20224;-71
2021/04/02 00:31:05;;;;;;;6.77;4.23;;;;;;;4.92;90.03;101178.56;5005568;28;20216;-72
2021/04/02 00:33:33;;;;;;;8.67;4.53;;;;;;;4.96;90.16;101178.56;5000176;28;20228;-72
2021/04/02 00:36:00;;;;;;;12.33;5.13;;;;;;;4.93;90.20;101179.44;5005427;28;20242;-71
2021/04/02 00:38:27;;;;;;;10.70;5.27;;;;;;;4.91;90.12;101188.91;5008119;28;20522;-71
2021/04/02 00:40:55;;;;;;;12.53;4.80;;;;;;;4.85;90.56;101187.13;5009713;28;20679;-72
2021/04/02 00:43:23;;;;;;;9.67;5.27;;;;;;;4.83;90.89;101185.38;5004249;28;20217;-71
2021/04/02 00:45:49;;;;;;;10.93;5.17;;;;;;;4.79;91.25;101188.81;5008453;28;20268;-71
2021/04/02 00:48:16;;;;;;;10.77;4.87;;;;;;;4.80;91.58;101185.38;5004788;28;20299;-72
2021/04/02 00:50:46;;;;;;;10.80;5.40;;;;;;;4.79;91.85;101194.84;5003257;28;20253;-72
2021/04/02 00:53:13;;;;;;;7.93;5.13;;;;;;;4.78;92.13;101195.69;5004302;28;20256;-72
2021/04/02 00:55:40;;;;;;;13.20;5.47;;;;;;;4.72;92.63;101201.69;4999613;28;20204;-72
2021/04/02 00:58:09;;;;;;;13.27;5.47;;;;;;;4.64;93.57;101211.09;5001341;28;20944;-73
2021/04/02 01:00:36;;;;;;;12.87;6.03;;;;;;;4.63;93.74;101214.53;5010305;28;20204;-71
2021/04/02 01:03:03;;;;;;;14.83;5.33;;;;;;;4.57;94.01;101214.47;5002582;28;20311;-71
2021/04/02 01:05:37;;;;;;;14.93;6.23;;;;;;;4.57;94.31;101219.63;4997286;28;20208;-71
2021/04/02 01:08:07;;;;;;;11.67;6.13;;;;;;;4.57;94.23;101211.03;5001267;28;20199;-71
2021/04/02 01:10:35;;;;;;;13.73;6.00;;;;;;;4.46;94.95;101216.13;5001696;28;20205;-71
2021/04/02 01:13:05;;;;;;;11.13;5.40;;;;;;;4.48;95.36;101214.41;5005138;28;20282;-72
2021/04/02 01:15:34;;;;;;;13.87;5.60;;;;;;;4.52;95.86;101214.44;5006850;28;20212;-73
2021/04/02 01:18:09;;;;;;;15.30;6.80;;;;;;;4.48;96.26;101211.81;4988902;28;20205;-71
2021/04/02 01:20:39;;;;;;;14.20;6.17;;;;;;;4.50;96.62;101207.53;5025121;28;20196;-72
2021/04/02 01:23:10;;;;;;;12.17;5.77;;;;;;;4.45;97.31;101210.09;5002712;28;20224;-73
2021/04/02 01:25:48;;;;;;;14.70;6.40;;;;;;;4.43;98.13;101206.59;5006916;28;20574;-72
2021/04/02 01:28:51;;;;;;;15.37;6.23;;;;;;;4.44;98.36;101207.50;5008405;28;20197;-71
2021/04/02 01:31:18;;;;;;;11.50;6.03;;;;;;;4.33;98.93;101225.47;5001574;28;20224;-70
2021/04/02 01:33:45;;;;;;;14.27;5.87;;;;;;;4.39;99.60;101220.34;4998101;28;20278;-72
2021/04/02 01:36:13;;;;;;;11.37;5.07;;;;;;;4.38;99.69;101218.66;5007276;28;20218;-70
2021/04/02 01:38:42;;;;;;;13.83;5.43;;;;;;;4.39;99.94;101222.06;5001683;28;20688;-74
2021/04/02 01:41:11;;;;;;;12.03;5.10;;;;;;;4.32;99.81;101231.47;5005265;28;20211;-74
2021/04/02 01:43:44;;;;;;;11.27;5.23;;;;;;;4.27;100.00;101230.56;5002924;28;20727;-72
2021/04/02 01:46:14;;;;;;;12.17;5.73;;;;;;;4.22;100.00;101232.25;5005185;28;20255;-70
2021/04/02 01:48:43;;;;;;;11.87;5.50;;;;;;;4.21;100.00;101233.97;5002254;28;20211;-72
2021/04/02 01:51:11;;;;;;;10.80;5.90;;;;;;;4.17;100.00;101240.81;5009058;28;20305;-71
2021/04/02 01:53:41;;;;;;;14.83;6.57;;;;;;;4.13;100.00;101241.66;5003837;28;20255;-72
2021/04/02 01:56:08;;;;;;;15.30;6.20;;;;;;;4.11;100.00;101240.72;5002859;28;20200;-71
2021/04/02 01:58:40;;;;;;;16.57;6.43;;;;;;;4.13;100.00;101248.50;5024169;28;20755;-71
2021/04/02 02:01:08;;;;;;;11.60;5.77;;;;;;;4.07;100.00;101236.41;5005122;28;20573;-72
2021/04/02 02:03:41;;;;;;;12.00;5.70;;;;;;;4.09;100.00;101236.41;5006212;28;20299;-70
2021/04/02 02:06:13;;;;;;;13.80;6.47;;;;;;;4.02;100.00;101242.38;5033162;28;20287;-72
2021/04/02 02:12:23;;;;;;;11.90;5.87;;;;;;;3.96;100.00;101245.75;4998251;28;20211;-71
2021/04/02 02:14:57;;;;;;;11.40;5.83;;;;;;;3.94;100.00;101240.56;4983804;28;20232;-70
2021/04/02 02:17:31;;;;;;;12.33;5.73;;;;;;;3.92;100.00;101242.28;5000704;28;20588;-69
2021/04/02 02:20:02;;;;;;;13.60;6.03;;;;;;;3.91;100.00;101244.84;5007838;28;20193;-71
2021/04/02 02:22:29;;;;;;;12.67;5.63;;;;;;;3.91;100.00;101242.25;4990106;28;20201;-72
2021/04/02 02:25:11;;;;;;;11.60;6.20;;;;;;;3.90;100.00;101238.78;5003237;28;20593;-70
2021/04/02 02:27:42;;;;;;;11.90;5.67;;;;;;;3.88;100.00;101239.63;5005632;28;20192;-71
2021/04/02 02:30:11;;;;;;;11.70;5.80;;;;;;;3.86;100.00;101239.63;5007060;28;20634;-70
2021/04/02 02:32:38;;;;;;;11.03;5.60;;;;;;;3.88;100.00;101237.06;5001149;28;20205;-72
2021/04/02 02:35:08;;;;;;;11.20;5.27;;;;;;;3.88;100.00;101237.06;5001901;28;20200;-71
2021/04/02 02:37:38;;;;;;;13.10;5.87;;;;;;;3.83;100.00;101242.16;5009516;28;20200;-71
2021/04/02 02:40:06;;;;;;;11.50;5.97;;;;;;;3.82;100.00;101253.34;5005561;28;20200;-70
2021/04/02 02:42:32;;;;;;;13.50;5.70;;;;;;;3.78;100.00;101248.97;5005770;28;20195;-71
2021/04/02 02:44:59;;;;;;;10.27;5.83;;;;;;;3.77;100.00;101249.84;4997736;28;20224;-70
2021/04/02 02:47:26;;;;;;;13.57;6.50;;;;;;;3.75;100.00;101249.81;5002499;28;20204;-70
2021/04/02 02:49:58;;;;;;;11.43;5.70;;;;;;;3.75;100.00;101248.97;5002298;28;20196;-70
2021/04/02 02:52:27;;;;;;;11.30;5.97;;;;;;;3.73;100.00;101251.50;4997448;28;20716;-70
2021/04/02 02:54:55;;;;;;;12.30;6.60;;;;;;;3.73;100.00;101250.63;5006643;28;20238;-70
2021/04/02 02:57:23;;;;;;;12.77;6.63;;;;;;;3.70;100.00;101250.63;5002498;28;20211;-70
2021/04/02 02:59:52;;;;;;;16.83;7.60;;;;;;;3.69;100.00;101249.72;5007576;28;20197;-70
2021/04/02 03:02:20;;;;;;;13.27;7.63;;;;;;;3.72;100.00;101247.19;4998287;28;20203;-70
2021/04/02 03:04:49;;;;;;;16.27;7.73;;;;;;;3.67;100.00;101248.00;5004618;28;20222;-70
2021/04/02 03:07:17;;;;;;;18.07;8.10;;;;;;;3.68;100.00;101244.56;5007851;28;20209;-70
2021/04/02 03:09:46;;;;;;;17.90;8.03;;;;;;;3.70;100.00;101250.63;5001295;28;20254;-70
2021/04/02 03:12:16;;;;;;;18.23;8.23;;;;;;;3.69;100.00;101252.31;5004277;28;20217;-70
2021/04/02 03:14:46;;;;;;;18.60;8.07;;;;;;;3.66;100.00;101247.13;5003233;28;20252;-70
2021/04/02 03:17:13;;;;;;;22.77;8.40;;;;;;;3.68;100.00;101242.00;5001005;28;20224;-70
2021/04/02 03:19:43;;;;;;;17.13;7.53;;;;;;;3.70;100.00;101243.72;5021584;28;20204;-71
2021/04/02 03:22:18;;;;;;;15.90;8.63;;;;;;;3.72;100.00;101246.34;5005087;28;20564;-71
2021/04/02 03:24:55;;;;;;;17.57;8.57;;;;;;;3.68;100.00;101247.16;5006616;28;20749;-71
2021/04/02 03:27:30;;;;;;;19.23;8.20;;;;;;;3.70;100.00;101248.88;5007239;28;20204;-71
2021/04/02 03:29:57;;;;;;;16.27;8.30;;;;;;;3.75;100.00;101243.81;5009472;28;20192;-70
2021/04/02 03:32:27;;;;;;;17.63;8.57;;;;;;;3.75;100.00;101252.41;5005875;28;20284;-71
2021/04/02 03:34:55;;;;;;;17.80;9.13;;;;;;;3.68;100.00;101249.72;4999776;28;20221;-71
2021/04/02 03:37:23;;;;;;;19.50;8.47;;;;;;;3.65;100.00;101255.69;5005734;28;20189;-71
2021/04/02 03:40:01;;;;;;;19.37;8.57;;;;;;;3.63;100.00;101256.53;5021388;28;20204;-70
2021/04/02 03:42:28;;;;;;;19.20;8.97;;;;;;;3.59;100.00;101253.91;5004556;28;20193;-71
2021/04/02 03:44:57;;;;;;;17.37;9.70;;;;;;;3.58;100.00;101259.06;5010690;28;20220;-71
2021/04/02 03:47:26;;;;;;;22.07;9.77;;;;;;;3.58;100.00;101253.91;5003015;28;20197;-71
2021/04/02 03:50:03;;;;;;;23.33;9.33;;;;;;;3.60;100.00;101252.19;5003834;28;20239;-71
2021/04/02 03:52:38;;;;;;;19.60;10.03;;;;;;;3.62;100.00;101253.06;5000930;28;20188;-71
2021/04/02 03:55:21;;;;;;;20.10;8.80;;;;;;;3.59;100.00;101251.34;4999779;28;20231;-71
2021/04/02 03:57:57;;;;;;;16.40;9.47;;;;;;;3.59;100.00;101245.31;5007268;28;20220;-71
2021/04/02 04:03:47;;;;;;;21.80;9.53;;;;;;;3.61;100.00;101253.94;5002396;28;20219;-71
2021/04/02 04:06:44;;;;;;;14.97;7.87;;;;;;;3.61;100.00;101253.94;5000891;28;20193;-71
2021/04/02 04:09:33;;;;;;;20.90;9.37;;;;;;;3.60;100.00;101252.19;5005798;28;20192;-71
2021/04/02 04:12:30;;;;;;;18.00;9.07;;;;;;;3.59;100.00;101246.19;5021642;28;20623;-71
2021/04/02 04:15:28;;;;;;;19.33;9.27;;;;;;;3.59;100.00;101241.03;5027182;28;20208;-71
2021/04/02 04:18:16;;;;;;;17.43;8.83;;;;;;;3.57;100.00;101237.56;5004461;28;20201;-71
2021/04/02 04:21:12;;;;;;;20.10;9.33;;;;;;;3.58;100.00;101246.16;5022761;28;20206;-71
2021/04/02 04:23:50;;;;;;;18.50;8.97;;;;;;;3.55;100.00;101243.53;5016757;23;20228;-70
2021/04/02 04:26:20;;;;;;;21.40;9.57;;;;;;;3.58;100.00;101248.75;5007226;28;20259;-71
2021/04/02 04:28:51;;;;;;;17.63;8.77;;;;;;;3.67;100.00;101242.84;5009529;28;20270;-71
2021/04/02 04:31:18;;;;;;;15.83;8.37;;;;;;;3.61;100.00;101251.38;5002612;28;20248;-70
2021/04/02 04:33:47;;;;;;;15.63;8.93;;;;;;;3.60;100.00;101255.63;4995064;28;20230;-70
2021/04/02 04:36:15;;;;;;;17.43;8.67;;;;;;;3.57;100.00;101254.72;4984896;28;20233;-70
2021/04/02 04:38:44;;;;;;;20.13;8.93;;;;;;;3.64;100.00;101258.25;4997376;28;20185;-70
2021/04/02 04:41:11;;;;;;;17.40;9.47;;;;;;;3.59;100.00;101255.66;4983858;28;20193;-71
2021/04/02 04:43:37;;;;;;;16.47;8.57;;;;;;;3.63;100.00;101251.38;4983905;28;20295;-70
2021/04/02 04:46:04;;;;;;;21.47;10.20;;;;;;;3.65;100.00;101244.53;4988893;28;20288;-70
2021/04/02 04:48:31;;;;;;;21.47;9.53;;;;;;;3.67;100.00;101241.09;4986475;28;20201;-70
2021/04/02 04:50:57;;;;;;;16.13;8.37;;;;;;;3.65;100.00;101254.84;4985995;28;20715;-71
2021/04/02 04:53:26;;;;;;;16.40;8.03;;;;;;;3.56;100.00;101259.03;4987199;28;20258;-71
2021/04/02 04:55:54;;;;;;;19.57;8.67;;;;;;;3.57;100.00;101259.88;4984586;28;20231;-70
2021/04/02 04:58:22;;;;;;;17.73;9.07;;;;;;;3.57;100.00;101247.88;4985088;28;20273;-70
2021/04/02 05:00:51;;;;;;;19.70;9.23;;;;;;;3.57;100.00;101255.63;4986119;28;20194;-71
2021/04/02 05:03:21;;;;;;;17.80;8.77;;;;;;;3.58;100.00;101259.06;4984130;28;20675;-70
2021/04/02 05:05:52;;;;;;;16.03;8.70;;;;;;;3.60;100.00;101255.63;4987346;28;20193;-71
2021/04/02 05:08:22;;;;;;;13.53;8.07;;;;;;;3.58;100.00;101254.75;4985321;28;20715;-71
2021/04/02 05:10:51;;;;;;;15.27;7.97;;;;;;;3.59;100.00;101253.91;4987268;28;20218;-70
2021/04/02 05:13:21;;;;;;;14.67;8.13;;;;;;;3.55;100.00;101254.75;4989051;28;20209;-71
2021/04/02 05:15:47;;;;;;;11.63;7.13;;;;;;;3.54;100.00;101250.41;4990525;28;20209;-70
2021/04/02 05:18:14;;;;;;;13.50;7.10;;;;;;;3.55;100.00;101253.84;4993661;28;20194;-70
2021/04/02 05:20:44;;;;;;;11.10;6.80;;;;;;;3.53;100.00;101253.81;4993427;28;20688;-70
2021/04/02 05:23:11;;;;;;;13.73;7.20;;;;;;;3.54;100.00;101255.56;4987163;28;20193;-71
2021/04/02 05:25:37;;;;;;;13.97;6.97;;;;;;;3.57;100.00;101252.16;4985333;28;20241;-70
2021/04/02 05:28:04;;;;;;;10.37;6.33;;;;;;;3.57;100.00;101249.56;4993976;28;20255;-71
2021/04/02 05:30:32;;;;;;;8.87;6.63;;;;;;;3.55;100.00;101256.44;4990632;28;20217;-70
2021/04/02 05:32:58;;;;;;;11.77;6.63;;;;;;;3.55;100.00;101259.00;4990405;28;20208;-70
2021/04/02 05:35:25;;;;;;;10.40;6.03;;;;;;;3.55;100.00;101259.91;4986016;28;20225;-70
2021/04/02 05:37:52;;;;;;;11.23;6.20;;;;;;;3.45;100.00;101254.56;4990116;28;20205;-70
2021/04/02 05:40:18;;;;;;;8.53;6.03;;;;;;;3.41;100.00;101258.81;4991657;28;20236;-71
2021/04/02 05:42:48;;;;;;;8.53;5.80;;;;;;;3.44;100.00;101261.44;5008410;28;20687;-70
2021/04/02 05:45:16;;;;;;;10.27;6.23;;;;;;;3.42;100.00;101261.44;4988459;28;20217;-70
2021/04/02 05:47:42;;;;;;;9.93;6.40;;;;;;;3.45;100.00;101262.31;4988130;28;20202;-70
2021/04/02 05:50:10;;;;;;;8.17;5.80;;;;;;;3.40;100.00;101268.28;4987802;28;20652;-70
2021/04/02 05:52:37;;;;;;;7.40;5.23;;;;;;;3.38;99.47;101262.25;4989870;28;20245;-70
2021/04/02 05:55:08;;;;;;;8.27;5.20;;;;;;;3.33;98.61;101263.03;4991997;28;20299;-70
2021/04/02 05:57:35;;;;;;;8.37;5.83;;;;;;;3.32;98.20;101258.69;4990687;28;20696;-70
2021/04/02 06:00:02;;;;;;;11.67;6.00;;;;;;;3.32;98.34;101267.28;4982827;28;20214;-70
2021/04/02 06:02:39;;;;;;;11.07;5.83;;;;;;;3.36;98.31;101263.03;4988842;28;20274;-70
2021/04/02 06:05:06;;;;;;;8.03;5.33;;;;;;;3.36;98.21;101257.88;4988412;28;20228;-70
2021/04/02 06:07:33;;;;;;;8.70;5.53;;;;;;;3.38;98.20;101269.97;4988999;28;20239;-70
2021/04/02 06:09:59;;;;;;;8.47;5.90;;;;;;;3.29;96.53;101264.69;4984540;28;20608;-70
2021/04/02 06:12:26;;;;;;;10.20;5.93;;;;;;;3.35;97.01;101272.50;4988062;28;20355;-70
2021/04/02 06:14:52;;;;;;;9.53;5.97;;;;;;;3.40;97.51;101277.72;4990033;28;20477;-71
2021/04/02 06:17:18;;;;;;;8.20;5.40;;;;;;;3.38;96.83;101269.97;4991141;28;20280;-71
2021/04/02 06:19:44;;;;;;;7.30;5.23;;;;;;;3.40;96.61;101267.41;4994176;28;20523;-71
2021/04/02 06:22:10;;;;;;;8.77;5.93;;;;;;;3.36;95.50;101270.78;4991894;28;20198;-70
2021/04/02 06:24:40;;;;;;;9.83;6.10;;;;;;;3.41;95.96;101274.28;4987299;28;20232;-70
2021/04/02 06:27:08;;;;;;;7.50;5.40;;;;;;;3.48;96.19;101276.09;4986068;28;20224;-70
2021/04/02 06:29:40;;;;;;;8.57;5.90;;;;;;;3.46;94.73;101282.09;4988056;28;20228;-70
2021/04/02 06:32:08;;;;;;;10.00;6.50;;;;;;;3.35;94.27;101279.38;4996944;28;20232;-71
2021/04/02 06:34:34;;;;;;;8.37;6.00;;;;;;;3.44;94.69;101283.78;4988457;28;20262;-70
2021/04/02 06:37:01;;;;;;;8.80;6.17;;;;;;;3.58;96.09;101287.41;4991096;28;20248;-70
2021/04/02 06:39:30;;;;;;;9.40;5.77;;;;;;;3.52;93.63;101290.78;4987611;28;20236;-71
2021/04/02 06:41:59;;;;;;;8.23;5.50;;;;;;;3.47;92.71;101300.16;4991560;28;20193;-70
2021/04/02 06:44:29;;;;;;;9.30;5.23;;;;;;;3.52;93.46;101297.66;4985977;28;20333;-70
2021/04/02 06:46:58;;;;;;;8.93;5.73;;;;;;;3.46;92.30;101301.00;4990251;28;20263;-70
2021/04/02 06:49:25;;;;;;;10.80;5.87;;;;;;;3.38;91.40;101305.22;4992027;28;20205;-71
2021/04/02 06:51:53;;;;;;;8.73;5.40;;;;;;;3.37;91.25;101306.91;4986759;28;20225;-70
2021/04/02 06:54:21;;;;;;;7.43;5.20;;;;;;;3.36;90.73;101306.88;4992626;28;20302;-70
2021/04/02 06:56:55;;;;;;;9.17;5.67;;;;;;;3.47;92.64;101301.91;4985513;28;20197;-71
2021/04/02 06:59:24;;;;;;;7.43;5.63;;;;;;;3.49;91.11;101307.94;4997127;28;20189;-71
2021/04/02 07:01:54;;;;;;;8.43;5.33;;;;;;;3.51;90.41;101309.66;4988506;28;20279;-71
2021/04/02 07:04:23;;;;;;;8.27;5.33;;;;;;;3.47;90.24;101312.22;4985194;28;20279;-71
2021/04/02 07:06:51;;;;;;;8.67;5.40;;;;;;;3.52;90.25;101319.16;4984712;28;20639;-70
2021/04/02 07:09:20;;;;;;;9.17;5.37;;;;;;;3.48;89.68;101316.50;4986529;28;20239;-71
2021/04/02 07:11:48;;;;;;;9.40;5.20;;;;;;;3.56;89.75;101323.50;4987865;28;20221;-70
2021/04/02 07:14:17;;;;;;;6.57;4.67;;;;;;;3.54;88.17;101321.75;4987374;28;20312;-70
2021/04/02 07:16:43;;;;;;;8.07;5.30;;;;;;;3.73;89.63;101326.31;4990998;28;20847;-71
2021/04/02 07:19:09;;;;;;;9.30;5.50;;;;;;;3.91;89.62;101317.94;4986898;28;20503;-70
2021/04/02 07:21:36;;;;;;;7.83;5.37;;;;;;;4.18;89.65;101325.13;4988775;28;20201;-71
2021/04/02 07:24:03;;;;;;;8.10;4.77;;;;;;;4.22;88.90;101325.16;4985966;28;20225;-70
2021/04/02 07:26:29;;;;;;;6.43;4.87;;;;;;;4.32;88.33;101327.84;4989763;28;20232;-71
2021/04/02 07:28:56;;;;;;;7.07;4.77;;;;;;;4.42;89.73;101333.16;4985797;28;20328;-70
2021/04/02 07:31:24;;;;;;;6.50;4.83;;;;;;;4.22;87.25;101338.97;4986283;28;20217;-70
2021/04/02 07:33:52;;;;;;;8.10;4.93;;;;;;;4.27;88.80;101326.94;4990510;28;20571;-71
2021/04/02 07:36:19;;;;;;;6.30;4.23;;;;;;;4.24;86.71;101328.63;4999503;28;20277;-71
2021/04/02 07:38:49;;;;;;;7.37;4.50;;;;;;;4.10;86.12;101337.09;4988397;28;20209;-71
2021/04/02 07:41:18;;;;;;;7.80;4.77;;;;;;;4.01;86.51;101324.09;4983984;28;20197;-70
2021/04/02 07:43:49;;;;;;;8.97;6.37;;;;;;;3.93;85.89;101323.13;4984828;28;20232;-71
2021/04/02 07:46:18;;;;;;;9.00;5.33;;;;;;;3.89;85.81;101316.19;4987185;28;20680;-71
2021/04/02 07:48:48;;;;;;;8.87;5.33;;;;;;;3.95;85.14;101311.09;4986483;28;20193;-71
2021/04/02 07:51:14;;;;;;;7.40;4.70;;;;;;;4.01;85.76;101311.19;4991486;28;20449;-71
2021/04/02 07:53:46;;;;;;;6.80;4.17;;;;;;;4.22;89.42;101295.06;4985837;28;20214;-71
2021/04/02 07:56:15;;;;;;;7.63;5.03;;;;;;;4.32;88.05;101283.13;4985586;28;20561;-70
2021/04/02 07:58:47;;;;;;;11.07;5.50;;;;;;;4.40;86.16;101289.22;4983461;28;20310;-71
2021/04/02 08:01:15;;;;;;;10.20;6.20;;;;;;;4.54;87.39;101294.53;4982970;28;20201;-70
2021/04/02 08:03:42;;;;;;;7.77;5.60;;;;;;;4.49;83.15;101303.94;4984738;28;20701;-71
2021/04/02 08:06:10;;;;;;;6.80;5.33;;;;;;;4.53;84.11;101295.38;4986632;28;20197;-71
2021/04/02 08:08:44;;;;;;;8.63;5.73;;;;;;;4.54;84.74;101295.38;4983498;28;20205;-70
2021/04/02 08:11:16;;;;;;;8.97;6.07;;;;;;;4.53;84.19;101300.53;4983078;28;20642;-70
2021/04/02 08:13:50;;;;;;;8.47;4.77;;;;;;;4.62;87.42;101295.44;4986434;28;20221;-70
2021/04/02 08:16:41;;;;;;;7.87;4.90;;;;;;;4.72;84.00;101314.50;4983429;28;20197;-70
2021/04/02 08:19:09;;;;;;;6.90;4.87;;;;;;;4.88;85.28;101310.31;4981973;28;20574;-71
2021/04/02 08:21:37;;;;;;;6.90;4.50;;;;;;;4.93;85.41;101308.66;4983665;28;20206;-71
2021/04/02 08:24:04;;;;;;;6.77;4.17;;;;;;;4.88;81.97;101328.41;4989798;28;20527;-70
2021/04/02 08:26:32;;;;;;;5.23;3.47;;;;;;;4.98;82.06;101324.16;4985902;28;20208;-70
2021/04/02 08:28:59;;;;;;;5.83;4.23;;;;;;;5.21;84.64;101314.03;4986177;28;20185;-71
2021/04/02 08:31:25;;;;;;;5.73;4.30;;;;;;;5.35;81.70;101325.31;4988525;28;20708;-71
2021/04/02 08:33:53;;;;;;;6.17;4.00;;;;;;;5.45;81.74;101316.78;4986605;28;20241;-71
2021/04/02 08:36:19;;;;;;;5.83;3.97;;;;;;;5.54;82.30;101315.97;4990930;28;20724;-71
2021/04/02 08:38:47;;;;;;;10.60;6.07;;;;;;;5.80;82.41;101318.66;4989080;28;20225;-71
2021/04/02 08:41:21;;;;;;;7.03;4.87;;;;;;;6.10;83.81;101318.81;4987130;28;20200;-71
2021/04/02 08:43:48;;;;;;;7.93;4.30;;;;;;;6.09;82.47;101319.69;5004110;28;20231;-71
2021/04/02 08:46:15;;;;;;;7.23;3.63;;;;;;;5.84;80.33;101325.59;4989867;28;20212;-71
2021/04/02 08:48:43;;;;;;;7.80;4.80;;;;;;;5.74;79.90;101323.81;4989059;28;20285;-71
2021/04/02 08:51:18;;;;;;;7.40;4.80;;;;;;;5.78;80.37;101317.78;4993124;28;20224;-71
2021/04/02 08:53:44;;;;;;;5.43;4.20;;;;;;;5.77;81.37;101308.31;4990512;28;20622;-71
2021/04/02 08:56:15;;;;;;;5.33;4.53;;;;;;;5.69;78.73;101322.94;4989188;28;20284;-71
2021/04/02 08:58:41;;;;;;;5.20;4.37;;;;;;;5.85;79.54;101306.59;4997627;28;20579;-71
2021/04/02 09:01:08;;;;;;;6.47;4.70;;;;;;;6.06;79.99;101305.00;4993178;28;20288;-71
2021/04/02 09:03:34;;;;;;;4.40;3.77;;;;;;;6.18;78.16;101305.03;4998068;28;20290;-70
2021/04/02 09:06:00;;;;;;;5.27;3.50;;;;;;;6.35;77.46;101305.09;4989219;28;20209;-71
2021/04/02 09:08:27;;;;;;;6.57;3.67;;;;;;;6.52;77.07;101307.69;4998248;28;20200;-71
2021/04/02 09:10:53;;;;;;;7.10;4.23;;;;;;;6.44;72.68;101315.47;4989760;28;20220;-70
2021/04/02 09:13:27;;;;;;;6.40;4.53;;;;;;;6.64;76.79;101310.28;4990453;28;20215;-71
2021/04/02 09:15:53;;;;;;;5.57;3.50;;;;;;;6.51;71.55;101313.75;4990986;28;20217;-71
2021/04/02 09:18:27;;;;;;;5.90;4.10;;;;;;;6.69;75.03;101299.94;4986376;28;20307;-71
2021/04/02 09:20:53;;;;;;;8.57;5.47;;;;;;;6.69;72.00;101301.69;4985782;28;20615;-70
2021/04/02 09:23:20;;;;;;;7.13;4.60;;;;;;;6.75;75.46;101284.38;4984653;28;20220;-71
2021/04/02 09:25:49;;;;;;;7.80;4.97;;;;;;;6.68;75.11;101285.25;4990262;28;20204;-71
2021/04/02 09:28:20;;;;;;;7.37;4.23;;;;;;;6.70;73.08;101293.91;4986507;28;20201;-70
2021/04/02 09:30:46;;;;;;;6.00;4.10;;;;;;;6.65;72.04;101290.44;4990632;28;20202;-71
2021/04/02 09:33:17;;;;;;;7.87;4.63;;;;;;;6.80;73.68;101276.63;4984253;28;20251;-71
2021/04/02 09:35:44;;;;;;;8.30;4.87;;;;;;;6.89;71.90;101270.56;4987710;28;20285;-71
2021/04/02 09:38:10;;;;;;;6.33;3.97;;;;;;;6.85;71.51;101269.72;4991229;28;20668;-71
2021/04/02 09:40:36;;;;;;;7.70;4.33;;;;;;;6.88;72.23;101264.53;4982499;28;20231;-73
2021/04/02 09:43:04;;;;;;;6.87;4.30;;;;;;;7.18;74.46;101263.63;4988350;28;20197;-71
2021/04/02 09:45:30;;;;;;;9.00;5.10;;;;;;;7.20;70.64;101272.25;4984856;28;20216;-70
2021/04/02 09:47:58;;;;;;;5.23;4.20;;;;;;;7.27;70.86;101269.66;4988666;28;20205;-71
2021/04/02 09:50:25;;;;;;;8.40;4.90;;;;;;;7.29;68.07;101271.38;4982062;28;20198;-71
2021/04/02 09:52:52;;;;;;;6.53;4.50;;;;;;;7.45;69.64;101263.56;4984026;28;20217;-71
2021/04/02 09:55:18;;;;;;;8.03;4.63;;;;;;;7.58;68.62;101271.31;4988618;28;20232;-71
2021/04/02 09:57:44;;;;;;;5.87;3.87;;;;;;;7.49;67.38;101265.25;4983113;28;20212;-71
2021/04/02 10:00:13;;;;;;;7.37;4.50;;;;;;;7.54;67.90;101264.38;4990802;28;20205;-71
2021/04/02 10:02:39;;;;;;;8.17;5.10;;;;;;;7.55;65.75;101266.13;4979675;28;20198;-71
2021/04/02 10:05:08;;;;;;;5.97;3.73;;;;;;;7.53;66.24;101256.63;4988972;28;20224;-71
2021/04/02 10:07:34;;;;;;;5.33;3.87;;;;;;;7.59;66.28;101249.66;4990872;28;20205;-71
2021/04/02 10:10:01;;;;;;;5.63;3.43;;;;;;;7.66;63.52;101253.09;4988678;28;20209;-71
2021/04/02 10:12:27;;;;;;;7.37;4.47;;;;;;;7.83;66.94;101247.84;4986413;28;20300;-71
2021/04/02 10:14:53;;;;;;;5.33;4.10;;;;;;;7.99;62.64;101251.22;4988532;28;20225;-71
2021/04/02 10:17:25;;;;;;;7.33;3.40;;;;;;;8.02;62.74;101242.53;4994187;28;20228;-71
2021/04/02 10:19:51;;;;;;;9.50;5.47;;;;;;;7.89;65.10;101227.00;4986661;28;20212;-71
2021/04/02 10:22:17;;;;;;;8.30;4.27;;;;;;;7.84;60.07;101228.78;4991643;28;20251;-71
2021/04/02 10:24:43;;;;;;;6.00;4.00;;;;;;;7.90;63.30;101222.72;4987189;28;20238;-72
2021/04/02 10:27:10;;;;;;;9.53;3.60;;;;;;;7.92;61.55;101229.59;5000813;28;20201;-72
2021/04/02 10:29:36;;;;;;;5.57;3.10;;;;;;;7.96;61.11;101225.25;4986798;28;20246;-70
2021/04/02 10:32:02;;;;;;;5.70;3.63;;;;;;;7.90;59.12;101239.16;4984891;28;20216;-71
2021/04/02 10:34:29;;;;;;;5.60;3.50;;;;;;;7.96;57.02;101241.69;4986874;28;20221;-71
2021/04/02 10:36:55;;;;;;;6.20;3.70;;;;;;;7.94;61.42;101225.25;4986010;28;20286;-72
2021/04/02 10:39:21;;;;;;;4.90;3.40;;;;;;;7.97;60.81;101222.66;4989823;28;20596;-72
2021/04/02 10:41:47;;;;;;;7.40;4.57;;;;;;;8.24;61.63;101230.28;4983867;28;20275;-71
2021/04/02 10:44:14;;;;;;;8.57;4.40;;;;;;;8.23;60.43;101225.94;4983434;28;20221;-72
2021/04/02 10:46:40;;;;;;;7.73;4.27;;;;;;;8.30;64.87;101219.84;4981574;28;20408;-72
2021/04/02 10:49:06;;;;;;;7.17;4.50;;;;;;;8.28;63.55;101219.00;4981968;28;20291;-71
2021/04/02 10:51:32;;;;;;;8.60;4.60;;;;;;;8.20;63.22;101207.81;4982378;28;20283;-72
2021/04/02 10:54:01;;;;;;;7.37;4.60;;;;;;;8.27;62.82;101212.09;4985857;28;20217;-72
2021/04/02 10:56:28;;;;;;;9.83;4.93;;;;;;;8.31;60.14;101211.19;4991524;28;20217;-70
2021/04/02 10:58:55;;;;;;;7.80;4.40;;;;;;;8.40;60.58;101211.09;4983366;28;20209;-71
2021/04/02 11:01:22;;;;;;;6.83;4.37;;;;;;;8.49;55.02;101231.84;4985562;28;20199;-71
2021/04/02 11:03:48;;;;;;;5.77;3.77;;;;;;;8.53;53.22;101224.88;4981507;28;20236;-72
2021/04/02 11:06:14;;;;;;;5.23;3.33;;;;;;;8.59;50.82;101221.41;4982992;28;20237;-72
2021/04/02 11:08:40;;;;;;;5.90;3.20;;;;;;;8.68;53.60;101214.38;4992775;28;20197;-72
2021/04/02 11:11:06;;;;;;;6.00;3.10;;;;;;;8.71;52.30;101213.50;4982979;28;20213;-70
2021/04/02 11:13:32;;;;;;;3.97;3.00;;;;;;;8.79;49.28;101222.06;4983467;28;20660;-71
2021/04/02 11:15:58;;;;;;;4.90;3.23;;;;;;;8.99;54.00;101210.59;4983896;28;20268;-72
2021/04/02 11:18:25;;;;;;;5.00;3.30;;;;;;;8.98;52.33;101204.56;4986779;28;20685;-70
2021/04/02 11:20:51;;;;;;;6.00;3.10;;;;;;;9.13;50.91;101207.84;4984124;28;20289;-71
2021/04/02 11:23:17;;;;;;;5.00;2.87;;;;;;;9.17;50.49;101197.41;4988822;28;20205;-70
2021/04/02 11:25:44;;;;;;;5.70;3.07;;;;;;;9.22;50.83;101206.03;4985621;28;20609;-71
2021/04/02 11:28:10;;;;;;;4.53;2.77;;;;;;;9.23;49.97;101197.34;4981794;28;20538;-72
2021/04/02 11:30:36;;;;;;;5.17;2.47;;;;;;;9.07;49.22;101206.19;4985632;28;20206;-72
2021/04/02 11:33:02;;;;;;;6.43;3.30;;;;;;;9.19;50.65;101182.63;4983145;28;20506;-70
2021/04/02 11:35:30;;;;;;;5.70;3.20;;;;;;;9.24;49.21;101187.81;4985764;28;20217;-72
2021/04/02 11:37:56;;;;;;;5.10;2.77;;;;;;;9.47;48.89;101188.38;4981181;28;20297;-71
2021/04/02 11:40:22;;;;;;;5.03;2.47;;;;;;;9.57;49.96;101180.44;4986684;28;20786;-72
2021/04/02 11:42:48;;;;;;;3.53;2.53;;;;;;;9.52;50.50;101170.09;4980344;28;20308;-72